Time;durP1;ratioP1;P1;durP2;ratioP2;P2;SDS_P1;SDS_P2;PMS_P1;PMS_P2;Temp;Humidity;BMP_temperature;BMP_pressure;BME280_temperature;BME280_humidity;BME280_pressure;Samples;Min_cycle;Max_cycle;Signal;HPM_P1;HPM_P2
2023/05/11 00:01:46;;;;;;;2.22;0.30;;;;;;;18.31;61.21;96504.28;10412127;28;20307;-27
2023/05/11 00:06:46;;;;;;;0.40;0.40;;;;;;;18.23;60.48;96488.22;10411755;28;20307;-26
2023/05/11 00:11:47;;;;;;;2.40;0.20;;;;;;;18.18;59.34;96483.16;10411405;28;20111;-26
2023/05/11 00:16:47;;;;;;;0.50;0.20;;;;;;;18.15;59.03;96485.72;10418025;28;20414;-26
2023/05/11 00:21:47;;;;;;;1.48;0.20;;;;;;;18.14;58.96;96475.59;10409835;28;20052;-26
2023/05/11 00:26:48;;;;;;;0.63;0.30;;;;;;;18.12;58.77;96475.59;10403282;28;20037;-27
2023/05/11 00:31:48;;;;;;;3.10;0.30;;;;;;;18.10;58.79;96473.91;10394810;28;20506;-26
2023/05/11 00:36:49;;;;;;;0.63;0.30;;;;;;;18.10;58.74;96476.44;10390907;28;20101;-26
2023/05/11 00:41:49;;;;;;;0.93;0.30;;;;;;;18.10;58.56;96466.31;10387884;28;20288;-26
2023/05/11 00:46:50;;;;;;;0.65;0.20;;;;;;;18.08;58.36;96466.31;10382626;28;20458;-26
2023/05/11 00:51:50;;;;;;;0.50;0.20;;;;;;;18.28;60.69;96468.78;10369179;28;20034;-26
2023/05/11 00:56:51;;;;;;;1.30;0.40;;;;;;;18.39;63.25;96462.03;10384054;28;20128;-27
2023/05/11 01:01:51;;;;;;;0.50;0.13;;;;;;;18.37;60.94;96462.03;10391838;28;20068;-26
2023/05/11 01:07:03;;;;;;;0.20;0.13;;;;;;;18.26;61.26;96456.13;10398011;28;20788;-26
2023/05/11 01:12:30;;;;;;;0.45;0.20;;;;;;;18.20;60.55;96458.69;10383194;28;20523;-26
2023/05/11 01:18:03;;;;;;;1.27;0.32;;;;;;;18.16;59.41;96464.59;10398850;28;20107;-26
2023/05/11 01:23:07;;;;;;;0.50;0.30;;;;;;;18.14;58.92;96465.44;10379421;28;20025;-26
2023/05/11 01:28:38;;;;;;;0.82;0.38;;;;;;;18.12;58.73;96462.09;10390525;28;20563;-26
2023/05/11 01:33:50;;;;;;;0.50;0.10;;;;;;;18.10;58.79;96466.31;10391129;28;20041;-27
2023/05/11 01:38:53;;;;;;;0.38;0.20;;;;;;;18.10;58.61;96458.72;10373550;28;20486;-26
2023/05/11 01:43:57;;;;;;;0.52;0.30;;;;;;;18.08;58.50;96466.31;10381977;28;20494;-26
2023/05/11 01:49:01;;;;;;;0.95;0.20;;;;;;;18.08;58.45;96470.56;10400508;28;20036;-26
2023/05/11 01:54:06;;;;;;;0.77;0.30;;;;;;;18.20;61.06;96471.38;10375631;28;20065;-26
2023/05/11 01:59:07;;;;;;;0.73;0.38;;;;;;;18.34;63.69;96469.63;10381628;28;20034;-26
2023/05/11 02:04:10;;;;;;;0.30;0.10;;;;;;;18.38;61.37;96473.00;10390229;28;20474;-26
2023/05/11 02:09:11;;;;;;;0.47;0.20;;;;;;;18.28;61.70;96473.84;10403749;28;20054;-26
2023/05/11 02:14:14;;;;;;;0.70;0.25;;;;;;;18.21;60.82;96483.19;10400582;28;20037;-26
2023/05/11 02:19:16;;;;;;;0.90;0.30;;;;;;;18.17;59.75;96476.41;10403625;28;20032;-26
2023/05/11 02:24:20;;;;;;;0.38;0.25;;;;;;;18.14;59.35;96475.59;10405193;28;20065;-26
2023/05/11 02:29:20;;;;;;;0.30;0.30;;;;;;;18.13;59.08;96463.75;10380810;28;20071;-26
2023/05/11 02:34:27;;;;;;;0.55;0.20;;;;;;;18.11;58.83;96465.47;10414895;28;20378;-26
2023/05/11 02:39:33;;;;;;;0.35;0.20;;;;;;;18.09;58.50;96462.09;10367024;28;20104;-26
2023/05/11 02:44:36;;;;;;;0.17;0.10;;;;;;;18.08;58.52;96465.47;10399285;28;20083;-26
2023/05/11 02:49:38;;;;;;;0.57;0.57;;;;;;;18.08;58.54;96460.41;10388559;28;20328;-26
2023/05/11 02:54:42;;;;;;;0.52;0.20;;;;;;;18.07;58.40;96468.88;10397101;28;20034;-27
2023/05/11 02:59:44;;;;;;;0.20;0.20;;;;;;;18.27;64.69;96462.91;10388380;28;20413;-26
2023/05/11 03:04:44;;;;;;;1.67;0.40;;;;;;;18.36;66.14;96456.97;10386962;28;20124;-27
2023/05/11 03:09:46;;;;;;;0.30;0.30;;;;;;;18.32;61.65;96447.72;10388638;28;20572;-26
2023/05/11 03:14:48;;;;;;;0.20;0.13;;;;;;;18.22;61.64;96448.53;10404484;28;20037;-26
2023/05/11 03:19:49;;;;;;;3.42;0.30;;;;;;;18.17;60.96;96450.25;10393947;28;20030;-26
2023/05/11 03:24:51;;;;;;;0.85;0.20;;;;;;;18.14;59.96;96447.72;10395610;28;20061;-26
2023/05/11 03:29:52;;;;;;;1.13;0.30;;;;;;;18.11;59.28;96442.66;10394815;28;20029;-26
2023/05/11 03:34:53;;;;;;;0.38;0.13;;;;;;;18.10;58.97;96448.59;10405018;28;20030;-26
2023/05/11 03:39:57;;;;;;;0.90;0.20;;;;;;;18.10;58.73;96448.59;10413334;28;20047;-26
2023/05/11 03:45:00;;;;;;;0.63;0.28;;;;;;;18.08;58.53;96445.22;10373196;28;20415;-26
2023/05/11 03:50:02;;;;;;;0.38;0.25;;;;;;;18.08;59.94;96440.16;10412947;28;20121;-26
2023/05/11 03:55:03;;;;;;;0.45;0.20;;;;;;;18.04;58.52;96428.31;10385948;28;20460;-26
2023/05/11 04:00:05;;;;;;;1.90;0.20;;;;;;;18.12;62.61;96430.00;10380899;28;20071;-26
2023/05/11 04:05:17;;;;;;;1.27;0.57;;;;;;;18.30;65.87;96434.19;10406056;28;20416;-26
2023/05/11 04:10:19;;;;;;;0.28;0.20;;;;;;;18.36;65.15;96426.56;10382728;28;20032;-26
2023/05/11 04:15:20;;;;;;;0.40;0.20;;;;;;;18.29;61.51;96435.00;10381080;28;20032;-26
2023/05/11 04:20:21;;;;;;;0.82;0.17;;;;;;;18.20;61.16;96435.88;10399768;28;20554;-26
2023/05/11 04:25:22;;;;;;;2.22;0.20;;;;;;;18.17;60.19;96438.41;10410449;28;20029;-25
2023/05/11 04:30:23;;;;;;;0.65;0.20;;;;;;;18.13;60.00;96429.16;10383083;28;20029;-26
2023/05/11 04:35:25;;;;;;;0.50;0.28;;;;;;;18.08;59.01;96430.03;10392037;28;20548;-26
2023/05/11 04:40:26;;;;;;;1.08;0.30;;;;;;;18.09;60.04;96421.56;10398268;28;20064;-27
2023/05/11 04:45:27;;;;;;;4.95;1.40;;;;;;;17.97;60.68;96436.78;10394991;28;20025;-26
2023/05/11 04:50:27;;;;;;;3.08;1.00;;;;;;;17.90;59.89;96435.97;10388771;28;20437;-26
2023/05/11 04:55:28;;;;;;;3.78;0.63;;;;;;;17.82;60.65;96447.78;10390334;28;20041;-26
2023/05/11 05:00:30;;;;;;;4.10;0.70;;;;;;;17.83;60.39;96443.59;10380054;28;20069;-27
2023/05/11 05:05:30;;;;;;;3.28;1.00;;;;;;;17.93;61.12;96450.31;10402959;28;20493;-26
2023/05/11 05:10:31;;;;;;;4.67;1.00;;;;;;;17.94;61.03;96452.00;10409733;28;20440;-26
2023/05/11 05:15:31;;;;;;;2.95;0.70;;;;;;;17.87;60.49;96451.19;10385634;28;20513;-26
2023/05/11 05:20:33;;;;;;;1.17;0.60;;;;;;;17.95;60.48;96449.47;10375124;28;20035;-27
2023/05/11 05:25:34;;;;;;;3.75;0.90;;;;;;;17.99;60.27;96453.66;10383062;28;20075;-26
2023/05/11 05:30:35;;;;;;;4.72;0.80;;;;;;;18.02;60.40;96448.63;10371104;28;20558;-26
2023/05/11 05:35:36;;;;;;;4.45;0.70;;;;;;;17.77;59.36;96454.56;10385810;28;20057;-26
2023/05/11 05:40:38;;;;;;;6.60;0.88;;;;;;;17.84;59.47;96457.94;10381760;28;20125;-26
2023/05/11 05:45:39;;;;;;;2.35;0.70;;;;;;;17.93;59.47;96457.91;10380438;28;20486;-26
2023/05/11 05:50:40;;;;;;;4.43;0.63;;;;;;;17.95;58.88;96457.06;10370642;28;20091;-27
2023/05/11 05:55:40;;;;;;;3.85;0.55;;;;;;;17.97;58.85;96457.03;10405895;28;20551;-26
2023/05/11 06:00:41;;;;;;;1.88;0.68;;;;;;;17.96;58.67;96468.88;10390302;28;20033;-26
2023/05/11 06:05:43;;;;;;;2.58;0.50;;;;;;;17.95;58.61;96463.81;10389517;28;20049;-27
2023/05/11 06:10:45;;;;;;;2.45;0.70;;;;;;;18.09;61.23;96467.16;10390722;28;20034;-26
2023/05/11 06:15:45;;;;;;;5.20;1.38;;;;;;;18.16;61.04;96463.78;10389302;28;20103;-26
2023/05/11 06:20:54;;;;;;;1.98;0.68;;;;;;;18.17;59.92;96460.38;10365419;28;20049;-27
2023/05/11 06:25:55;;;;;;;1.60;0.50;;;;;;;18.13;60.03;96466.28;10381370;28;20067;-26
2023/05/11 06:30:58;;;;;;;1.63;0.82;;;;;;;18.07;59.58;96461.28;10370667;28;20515;-27
2023/05/11 06:36:05;;;;;;;2.63;0.60;;;;;;;18.04;59.12;96461.25;10380686;28;20037;-26
2023/05/11 06:41:06;;;;;;;1.35;0.50;;;;;;;18.02;58.84;96463.81;10391740;28;20400;-27
2023/05/11 06:46:06;;;;;;;2.35;0.45;;;;;;;18.01;58.71;96464.63;10398782;28;20029;-27
2023/05/11 06:51:10;;;;;;;2.25;0.50;;;;;;;18.01;58.51;96462.09;10384564;28;20507;-26
2023/05/11 06:56:10;;;;;;;0.70;0.50;;;;;;;18.01;58.14;96463.81;10407299;28;20045;-26
2023/05/11 07:01:11;;;;;;;3.27;0.60;;;;;;;18.00;58.43;96462.13;10401889;28;20037;-26
2023/05/11 07:06:11;;;;;;;4.07;0.70;;;;;;;17.99;58.36;96456.19;10406467;28;20045;-26
2023/05/11 07:11:12;;;;;;;1.03;0.63;;;;;;;17.99;58.32;96455.38;10414716;28;20041;-26
2023/05/11 07:16:12;;;;;;;1.77;0.60;;;;;;;18.14;61.20;96460.38;10413383;28;20044;-26
2023/05/11 07:21:13;;;;;;;1.08;0.60;;;;;;;18.20;61.18;96460.38;10393201;28;20088;-26
2023/05/11 07:26:13;;;;;;;0.50;0.35;;;;;;;18.18;60.45;96462.06;10413604;28;20047;-26
2023/05/11 07:31:14;;;;;;;0.73;0.32;;;;;;;18.11;60.28;96462.94;10413643;28;20037;-26
2023/05/11 07:36:14;;;;;;;1.50;0.60;;;;;;;18.07;59.94;96463.81;10412732;28;20060;-26
2023/05/11 07:41:14;;;;;;;0.67;0.50;;;;;;;18.04;59.53;96466.31;10413491;28;20060;-26
2023/05/11 07:46:15;;;;;;;0.53;0.30;;;;;;;18.03;59.07;96464.63;10410609;28;20437;-26
2023/05/11 07:51:15;;;;;;;1.80;0.50;;;;;;;18.02;58.89;96465.50;10406646;28;20055;-27
2023/05/11 07:56:15;;;;;;;3.97;0.73;;;;;;;18.01;58.67;96469.69;10412893;28;20484;-27
2023/05/11 08:01:16;;;;;;;0.97;0.60;;;;;;;18.00;58.66;96467.19;10412430;28;20037;-26
2023/05/11 08:06:16;;;;;;;0.30;0.30;;;;;;;17.99;58.33;96465.50;10411542;28;20628;-26
2023/05/11 08:11:17;;;;;;;1.10;0.60;;;;;;;17.98;58.16;96463.81;10404109;28;20033;-26
2023/05/11 08:16:17;;;;;;;2.67;0.67;;;;;;;17.99;58.24;96468.03;10410427;28;20561;-26
2023/05/11 08:21:17;;;;;;;0.50;0.33;;;;;;;18.15;61.52;96462.91;10411472;28;20029;-26
2023/05/11 08:26:18;;;;;;;1.15;0.50;;;;;;;18.20;61.47;96462.91;10403112;28;20038;-26
2023/05/11 08:31:19;;;;;;;0.85;0.40;;;;;;;18.17;60.54;96462.94;10411036;28;20041;-26
2023/05/11 08:36:21;;;;;;;0.45;0.30;;;;;;;18.09;60.19;96457.84;10407237;28;20068;-26
2023/05/11 08:41:22;;;;;;;1.45;0.80;;;;;;;18.04;59.76;96448.59;10411254;28;20060;-26
2023/05/11 08:46:27;;;;;;;0.37;0.20;;;;;;;18.03;59.51;96459.56;10399118;28;20057;-26
2023/05/11 08:51:27;;;;;;;0.50;0.43;;;;;;;18.00;58.83;96460.41;10397486;28;20490;-26
2023/05/11 08:56:29;;;;;;;0.30;0.30;;;;;;;17.98;58.61;96461.28;10402381;28;20029;-26
2023/05/11 09:01:30;;;;;;;1.58;0.50;;;;;;;17.99;58.36;96460.44;10410081;28;20088;-25
2023/05/11 09:06:32;;;;;;;1.48;0.50;;;;;;;17.99;58.29;96455.38;10409033;28;20035;-26
2023/05/11 09:11:33;;;;;;;0.63;0.40;;;;;;;17.97;58.15;96457.91;10410540;28;21920;-26
2023/05/11 09:16:33;;;;;;;1.30;0.55;;;;;;;17.96;58.18;96465.50;10408852;28;20045;-26
2023/05/11 09:21:33;;;;;;;1.13;0.37;;;;;;;18.00;60.47;96462.13;10409216;28;20456;-26
2023/05/11 09:26:35;;;;;;;0.80;0.70;;;;;;;18.14;61.23;96455.31;10409117;28;20387;-26
2023/05/11 09:31:46;;;;;;;0.95;0.65;;;;;;;18.19;60.85;96451.09;10409096;28;20302;-26
2023/05/11 09:36:48;;;;;;;0.95;0.50;;;;;;;18.14;60.35;96452.78;10408177;28;20036;-26
2023/05/11 09:41:49;;;;;;;0.30;0.25;;;;;;;18.07;60.13;96444.38;10402699;28;20030;-27
2023/05/11 09:46:49;;;;;;;0.57;0.40;;;;;;;18.02;59.68;96445.22;10406476;28;20037;-26
2023/05/11 09:51:59;;;;;;;0.67;0.40;;;;;;;18.01;59.03;96438.47;10407935;28;20304;-26
2023/05/11 09:57:00;;;;;;;1.00;0.40;;;;;;;17.99;58.93;96435.94;10408614;28;20029;-27
2023/05/11 10:02:25;;;;;;;0.20;0.20;;;;;;;17.99;58.55;96435.13;10408216;28;20025;-27
2023/05/11 10:07:28;;;;;;;0.47;0.43;;;;;;;17.97;58.39;96432.56;10387693;28;20049;-26
2023/05/11 10:12:31;;;;;;;0.38;0.30;;;;;;;17.97;58.22;96429.19;10399943;28;20133;-26
2023/05/11 10:17:32;;;;;;;1.40;0.47;;;;;;;17.97;58.40;96426.66;10407220;28;20037;-26
2023/05/11 10:22:32;;;;;;;0.60;0.57;;;;;;;17.95;58.44;96429.22;10403912;28;20041;-25
2023/05/11 10:27:33;;;;;;;0.93;0.40;;;;;;;18.06;60.02;96426.63;10395171;28;20478;-26
2023/05/11 10:32:38;;;;;;;0.40;0.38;;;;;;;18.13;61.25;96413.94;10407729;28;20068;-25
2023/05/11 10:37:42;;;;;;;1.92;0.40;;;;;;;18.17;60.38;96402.13;10406792;28;20080;-26
2023/05/11 10:43:05;;;;;;;0.75;0.20;;;;;;;18.15;60.50;96408.88;10399520;28;20033;-26
2023/05/11 10:48:05;;;;;;;1.10;0.30;;;;;;;18.07;60.44;96408.91;10415254;28;20037;-26
2023/05/11 10:53:11;;;;;;;5.25;0.40;;;;;;;18.03;59.76;96398.78;10414752;28;20037;-26
2023/05/11 10:58:26;;;;;;;0.85;0.50;;;;;;;17.99;58.88;96394.59;10392400;28;20512;-27
2023/05/11 11:03:27;;;;;;;1.17;0.40;;;;;;;17.98;58.49;96392.91;10414293;28;20095;-26
2023/05/11 11:08:27;;;;;;;0.75;0.20;;;;;;;17.98;58.16;96395.44;10412481;28;20041;-26
2023/05/11 11:13:28;;;;;;;0.27;0.27;;;;;;;18.00;57.66;96402.16;10405567;28;20037;-26
2023/05/11 11:18:32;;;;;;;0.40;0.20;;;;;;;17.99;57.88;96400.47;10414256;28;20516;-26
2023/05/11 11:23:38;;;;;;;0.43;0.30;;;;;;;18.00;57.70;96399.63;10412982;28;20439;-26
2023/05/11 11:28:59;;;;;;;0.20;0.20;;;;;;;18.00;57.64;96388.66;10413490;28;20489;-26
2023/05/11 11:34:36;;;;;;;1.02;0.28;;;;;;;18.17;60.76;96389.44;10405203;28;20072;-26
2023/05/11 11:39:42;;;;;;;9.93;1.15;;;;;;;18.18;61.18;96386.06;10335108;28;20041;-25
2023/05/11 11:44:44;;;;;;;1.92;0.52;;;;;;;18.13;59.10;96367.50;10411564;28;20037;-27
2023/05/11 11:49:46;;;;;;;4.55;0.30;;;;;;;18.09;57.98;96370.91;10411743;28;20394;-26
2023/05/11 11:54:47;;;;;;;0.40;0.20;;;;;;;18.04;58.00;96363.31;10403855;28;20033;-27
2023/05/11 11:59:47;;;;;;;0.87;0.30;;;;;;;18.04;57.95;96359.94;10404589;28;20098;-27
2023/05/11 12:04:56;;;;;;;0.73;0.30;;;;;;;18.02;58.01;96361.63;10411700;28;20077;-27
2023/05/11 12:09:57;;;;;;;0.93;0.40;;;;;;;18.01;58.01;96365.03;10404250;28;20029;-26
2023/05/11 12:14:58;;;;;;;1.70;0.40;;;;;;;18.02;58.10;96359.09;10411359;28;20033;-26
2023/05/11 12:20:19;;;;;;;1.95;0.40;;;;;;;18.01;57.78;96362.50;10403164;28;20022;-26
2023/05/11 12:25:20;;;;;;;2.20;0.20;;;;;;;18.02;57.81;96364.16;10396996;28;20029;-27
2023/05/11 12:30:22;;;;;;;4.20;0.63;;;;;;;18.00;57.76;96360.81;10402761;28;20037;-26
2023/05/11 12:35:28;;;;;;;2.67;0.70;;;;;;;18.04;60.08;96360.78;10400417;28;20029;-26
2023/05/11 12:40:29;;;;;;;5.03;1.10;;;;;;;18.20;63.50;96359.03;10411298;28;20540;-26
2023/05/11 12:45:30;;;;;;;4.93;0.77;;;;;;;18.23;61.82;96359.84;10402646;28;20099;-26
2023/05/11 12:50:30;;;;;;;4.97;0.50;;;;;;;18.17;60.10;96353.97;10410064;28;20041;-26
2023/05/11 12:55:31;;;;;;;0.77;0.30;;;;;;;18.10;58.42;96350.63;10411101;28;20045;-26
2023/05/11 13:00:31;;;;;;;0.55;0.45;;;;;;;18.07;58.22;96349.81;10399733;28;20115;-26
2023/05/11 13:05:32;;;;;;;0.50;0.30;;;;;;;18.05;58.32;96354.00;10400661;28;20040;-26
2023/05/11 13:10:32;;;;;;;1.90;0.30;;;;;;;18.04;58.15;96357.41;10407477;28;20064;-26
2023/05/11 13:15:33;;;;;;;1.75;0.30;;;;;;;18.03;58.03;96360.78;10395726;28;20318;-27
2023/05/11 13:20:33;;;;;;;1.75;0.50;;;;;;;18.00;58.73;96358.28;10406016;28;20029;-26
2023/05/11 13:25:51;;;;;;;5.68;0.65;;;;;;;18.01;57.89;96367.56;10408513;28;20044;-27
2023/05/11 13:31:01;;;;;;;14.82;0.88;;;;;;;18.02;59.44;96354.91;10407429;28;20098;-26
2023/05/11 13:36:02;;;;;;;5.68;0.80;;;;;;;18.02;58.53;96359.09;10399830;28;20112;-27
2023/05/11 13:41:02;;;;;;;7.43;1.30;;;;;;;18.13;60.93;96357.34;10408838;28;20116;-26
2023/05/11 13:46:03;;;;;;;10.53;1.03;;;;;;;18.27;61.96;96356.47;10407990;28;20035;-26
2023/05/11 13:51:04;;;;;;;11.45;1.33;;;;;;;18.23;60.67;96346.31;10407728;28;20288;-26
2023/05/11 13:56:04;;;;;;;7.32;1.10;;;;;;;18.14;58.42;96333.69;10408170;28;20025;-26
2023/05/11 14:01:07;;;;;;;11.23;0.82;;;;;;;18.08;58.16;96338.81;10408253;28;20022;-26
2023/05/11 14:06:07;;;;;;;10.40;2.67;;;;;;;18.06;58.20;96330.38;10407511;28;20033;-26
2023/05/11 14:11:08;;;;;;;9.43;2.43;;;;;;;18.04;58.97;96321.94;10400249;28;20043;-26
2023/05/11 14:16:08;;;;;;;9.57;1.23;;;;;;;18.03;58.54;96323.66;10402375;28;20317;-26
2023/05/11 14:21:09;;;;;;;6.20;0.93;;;;;;;18.03;58.26;96317.72;10414699;28;20516;-26
2023/05/11 14:26:10;;;;;;;6.77;0.77;;;;;;;18.00;58.15;96310.16;10407626;28;20052;-26
2023/05/11 14:31:11;;;;;;;8.23;0.77;;;;;;;18.02;58.30;96305.91;10415714;28;20026;-26
2023/05/11 14:36:12;;;;;;;3.63;0.67;;;;;;;18.00;57.71;96305.09;10390392;28;20033;-26
2023/05/11 14:41:12;;;;;;;2.75;0.57;;;;;;;18.01;57.81;96301.69;10415918;28;20029;-26
2023/05/11 14:46:12;;;;;;;5.07;0.70;;;;;;;18.20;60.92;96298.22;10412933;28;20029;-26
2023/05/11 14:51:13;;;;;;;6.73;1.13;;;;;;;18.30;60.58;96299.88;10397957;28;20627;-27
2023/05/11 14:56:13;;;;;;;3.42;0.93;;;;;;;18.22;60.02;96296.50;10414048;28;20300;-26
2023/05/11 15:01:14;;;;;;;1.88;0.40;;;;;;;18.11;58.34;96295.72;10399028;28;20030;-26
2023/05/11 15:06:19;;;;;;;1.23;0.33;;;;;;;18.06;57.98;96289.84;10413933;28;20355;-27
2023/05/11 15:11:20;;;;;;;4.03;0.43;;;;;;;18.03;57.62;96289.84;10414917;28;20107;-26
2023/05/11 15:16:20;;;;;;;3.63;0.40;;;;;;;18.01;57.69;96286.50;10413626;28;20029;-26
2023/05/11 15:21:21;;;;;;;0.90;0.50;;;;;;;18.00;57.34;96272.16;10413590;28;20109;-26
2023/05/11 15:26:21;;;;;;;0.80;0.20;;;;;;;17.98;57.53;96276.41;10405819;28;20278;-26
2023/05/11 15:31:22;;;;;;;3.13;0.50;;;;;;;17.99;57.58;96267.94;10413333;28;20401;-25
2023/05/11 15:36:22;;;;;;;1.13;0.53;;;;;;;17.99;57.41;96267.94;10404696;28;20079;-26
2023/05/11 15:41:23;;;;;;;2.05;0.30;;;;;;;17.98;57.49;96261.19;10406933;28;20408;-27
2023/05/11 15:46:23;;;;;;;5.93;0.87;;;;;;;18.02;58.74;96267.91;10418569;28;20140;-26
2023/05/11 15:51:23;;;;;;;2.27;0.53;;;;;;;18.21;60.10;96266.94;10402919;28;20026;-26
2023/05/11 15:56:25;;;;;;;2.00;0.93;;;;;;;18.24;58.34;96264.41;10408348;28;20280;-26
2023/05/11 16:01:25;;;;;;;2.08;0.95;;;;;;;18.16;58.25;96258.56;10410073;28;20492;-25
2023/05/11 16:06:26;;;;;;;4.97;0.70;;;;;;;18.09;57.86;96259.44;10405375;28;20025;-26
2023/05/11 16:11:27;;;;;;;3.92;0.68;;;;;;;18.06;57.68;96256.91;10401469;28;20084;-26
2023/05/11 16:16:27;;;;;;;5.90;0.60;;;;;;;18.07;57.61;96261.16;10407692;28;20045;-26
2023/05/11 16:21:28;;;;;;;6.38;0.50;;;;;;;18.06;57.61;96254.38;10419694;28;20120;-26
2023/05/11 16:26:29;;;;;;;4.73;0.70;;;;;;;18.06;57.71;96254.38;10406431;28;20092;-26
2023/05/11 16:31:30;;;;;;;9.80;0.60;;;;;;;18.02;57.48;96257.78;10417381;28;20520;-26
2023/05/11 16:36:30;;;;;;;3.87;0.53;;;;;;;18.02;57.51;96258.66;10415200;28;20040;-26
2023/05/11 16:41:31;;;;;;;6.22;0.40;;;;;;;18.00;57.29;96259.50;10399497;28;20285;-26
2023/05/11 16:46:31;;;;;;;7.78;1.15;;;;;;;18.00;57.26;96255.25;10408853;28;20033;-26
2023/05/11 16:51:32;;;;;;;13.97;3.70;;;;;;;18.11;60.49;96265.34;10415784;28;20033;-26
2023/05/11 16:56:33;;;;;;;27.55;12.43;;;;;;;18.25;62.84;96255.97;10416479;28;20124;-26
2023/05/11 17:01:33;;;;;;;12.13;5.17;;;;;;;18.30;61.49;96260.19;10408017;28;20052;-26
2023/05/11 17:06:34;;;;;;;8.57;4.53;;;;;;;18.18;59.75;96254.31;10414626;28;20298;-26
2023/05/11 17:11:34;;;;;;;5.53;2.57;;;;;;;18.07;58.51;96256.91;10382108;28;20033;-26
2023/05/11 17:16:35;;;;;;;4.20;1.80;;;;;;;18.03;58.05;96262.00;10407556;28;20300;-26
2023/05/11 17:21:35;;;;;;;14.87;6.27;;;;;;;18.02;59.36;96267.91;10393602;28;20040;-26
2023/05/11 17:26:35;;;;;;;6.03;3.23;;;;;;;18.00;58.13;96269.63;10399935;28;20383;-26
2023/05/11 17:31:36;;;;;;;5.40;2.83;;;;;;;17.98;58.86;96284.81;10408643;28;20543;-26
2023/05/11 17:36:38;;;;;;;8.67;2.73;;;;;;;17.92;58.31;96286.56;10408346;28;20038;-26
2023/05/11 17:41:39;;;;;;;6.82;2.80;;;;;;;17.87;58.82;96294.16;10409148;28;20087;-26
2023/05/11 17:46:39;;;;;;;12.17;2.80;;;;;;;17.87;59.04;96298.38;10408027;28;20099;-25
2023/05/11 17:51:39;;;;;;;8.17;2.70;;;;;;;17.83;60.05;96302.63;10407166;28;20052;-26
2023/05/11 17:56:40;;;;;;;7.53;3.53;;;;;;;17.85;59.59;96306.00;10407640;28;20709;-26
2023/05/11 18:01:41;;;;;;;8.63;3.57;;;;;;;17.92;60.13;96312.69;10408079;28;20715;-26
2023/05/11 18:06:42;;;;;;;4.40;2.47;;;;;;;17.91;60.19;96317.78;10407070;28;20040;-26
2023/05/11 18:11:42;;;;;;;5.93;2.33;;;;;;;17.90;60.32;96326.25;10405902;28;20382;-26
2023/05/11 18:16:43;;;;;;;4.97;3.03;;;;;;;17.92;60.16;96316.94;10401450;28;20299;-26
2023/05/11 18:21:43;;;;;;;7.35;3.03;;;;;;;17.87;61.13;96319.50;10407275;28;20807;-25
2023/05/11 18:26:43;;;;;;;4.18;1.90;;;;;;;17.93;59.43;96314.38;10391901;28;20109;-26
2023/05/11 18:31:44;;;;;;;3.53;1.90;;;;;;;18.03;58.82;96305.06;10397608;28;20033;-25
2023/05/11 18:36:44;;;;;;;5.07;2.55;;;;;;;18.05;58.49;96309.28;10398302;28;20037;-26
2023/05/11 18:41:45;;;;;;;4.17;1.70;;;;;;;18.03;58.28;96297.47;10413733;28;20043;-26
2023/05/11 18:46:45;;;;;;;4.20;1.70;;;;;;;18.11;58.09;96305.88;10392960;28;20504;-26
2023/05/11 18:51:46;;;;;;;3.87;2.20;;;;;;;18.04;58.03;96300.00;10404514;28;20041;-26
2023/05/11 18:56:46;;;;;;;4.15;2.40;;;;;;;18.17;60.51;96323.56;10405698;28;20513;-26
2023/05/11 19:01:47;;;;;;;2.87;1.90;;;;;;;18.26;60.31;96323.53;10408247;28;20041;-26
2023/05/11 19:06:47;;;;;;;2.72;1.77;;;;;;;18.23;57.84;96318.44;10416164;28;20098;-27
2023/05/11 19:11:48;;;;;;;3.17;1.58;;;;;;;18.20;58.20;96323.56;10413409;28;20091;-26
2023/05/11 19:16:48;;;;;;;1.55;1.38;;;;;;;18.20;58.05;96326.09;10413635;28;20042;-26
2023/05/11 19:21:49;;;;;;;4.53;1.50;;;;;;;18.18;58.09;96331.16;10411576;28;20049;-26
2023/05/11 19:26:49;;;;;;;4.95;1.83;;;;;;;18.17;57.88;96336.25;10414592;28;20056;-26
2023/05/11 19:31:50;;;;;;;2.23;1.50;;;;;;;18.12;57.97;96330.34;10411587;28;20042;-26
2023/05/11 19:36:50;;;;;;;2.28;1.30;;;;;;;18.14;57.67;96342.16;10397052;28;20037;-26
2023/05/11 19:41:51;;;;;;;3.43;1.20;;;;;;;18.14;57.62;96354.84;10407308;28;20096;-27
2023/05/11 19:46:51;;;;;;;3.37;1.40;;;;;;;18.12;57.65;96346.41;10403727;28;20029;-26
2023/05/11 19:51:51;;;;;;;3.37;1.00;;;;;;;18.10;57.46;96357.38;10410182;28;20771;-26
2023/05/11 19:56:52;;;;;;;3.53;1.40;;;;;;;18.10;57.46;96363.31;10411220;28;20033;-26
2023/05/11 20:01:53;;;;;;;4.60;2.22;;;;;;;18.23;60.92;96357.31;10402700;28;20114;-26
2023/05/11 20:06:54;;;;;;;3.50;2.67;;;;;;;18.29;63.99;96364.94;10412095;28;20029;-26
2023/05/11 20:11:55;;;;;;;2.75;1.50;;;;;;;18.23;58.95;96364.06;10411060;28;20036;-26
2023/05/11 20:16:55;;;;;;;3.65;1.20;;;;;;;18.16;57.79;96368.31;10411618;28;20044;-26
2023/05/11 20:21:56;;;;;;;2.07;1.20;;;;;;;18.12;57.70;96366.66;10410546;28;20440;-25
2023/05/11 20:26:56;;;;;;;2.70;1.17;;;;;;;18.09;57.89;96370.91;10404646;28;20035;-26
2023/05/11 20:31:57;;;;;;;1.83;1.03;;;;;;;18.07;57.65;96362.47;10394300;28;20033;-26
2023/05/11 20:36:57;;;;;;;1.27;0.80;;;;;;;18.08;57.40;96366.69;10408979;28;20684;-26
2023/05/11 20:41:58;;;;;;;2.43;1.33;;;;;;;18.04;57.41;96365.00;10403854;28;20288;-26
2023/05/11 20:46:59;;;;;;;2.80;1.20;;;;;;;18.03;57.54;96370.91;10410073;28;20536;-26
2023/05/11 20:51:59;;;;;;;2.37;1.00;;;;;;;18.02;57.38;96364.16;10409928;28;20052;-26
2023/05/11 20:57:00;;;;;;;1.80;0.90;;;;;;;18.02;57.25;96359.97;10412522;28;20037;-27
2023/05/11 21:02:01;;;;;;;3.88;1.45;;;;;;;18.06;61.14;96363.28;10410255;28;20041;-27
2023/05/11 21:07:02;;;;;;;2.33;1.50;;;;;;;18.22;62.59;96363.25;10409129;28;20021;-26
2023/05/11 21:12:02;;;;;;;2.17;1.40;;;;;;;18.28;62.07;96363.22;10409951;28;20296;-26
2023/05/11 21:17:03;;;;;;;3.53;1.30;;;;;;;18.21;57.99;96368.31;10408712;28;20112;-26
2023/05/11 21:22:03;;;;;;;0.75;0.75;;;;;;;18.16;57.44;96367.50;10408981;28;20033;-26
2023/05/11 21:27:06;;;;;;;1.35;0.95;;;;;;;18.14;57.37;96369.19;10405252;28;20030;-26
2023/05/11 21:32:06;;;;;;;1.35;0.80;;;;;;;18.10;57.43;96364.97;10395041;28;20065;-26
2023/05/11 21:37:07;;;;;;;2.03;1.00;;;;;;;18.07;57.62;96367.53;10404611;28;20033;-26
2023/05/11 21:42:07;;;;;;;1.30;0.90;;;;;;;18.05;57.45;96370.06;10408107;28;20030;-26
2023/05/11 21:47:08;;;;;;;1.47;0.73;;;;;;;18.02;57.23;96362.50;10399994;28;20155;-26
2023/05/11 21:52:11;;;;;;;1.43;0.67;;;;;;;18.03;57.34;96361.66;10407993;28;20042;-26
2023/05/11 21:57:11;;;;;;;1.25;0.90;;;;;;;18.02;57.13;96359.09;10408539;28;20033;-26
2023/05/11 22:02:11;;;;;;;3.77;0.80;;;;;;;18.00;57.35;96354.03;10408027;28;20485;-26
2023/05/11 22:07:12;;;;;;;1.53;1.10;;;;;;;18.09;59.74;96353.16;10407631;28;20114;-26
2023/05/11 22:12:12;;;;;;;3.77;1.77;;;;;;;18.21;63.75;96359.03;10408186;28;20037;-26
2023/05/11 22:17:13;;;;;;;1.90;1.20;;;;;;;18.25;61.99;96354.78;10399084;28;20074;-26
2023/05/11 22:22:14;;;;;;;4.35;1.65;;;;;;;18.14;60.64;96354.84;10407556;28;20048;-26
2023/05/11 22:27:14;;;;;;;1.50;0.90;;;;;;;18.08;57.93;96348.97;10407517;28;20098;-26
2023/05/11 22:32:15;;;;;;;1.05;0.68;;;;;;;18.04;57.71;96353.19;10407592;28;20041;-26
2023/05/11 22:37:15;;;;;;;0.93;0.70;;;;;;;18.02;57.82;96349.84;10403802;28;20217;-26
2023/05/11 22:42:15;;;;;;;1.10;1.00;;;;;;;18.00;57.49;96356.56;10415822;28;20443;-26
2023/05/11 22:47:16;;;;;;;1.23;0.63;;;;;;;17.99;57.56;96362.47;10415260;28;20620;-26
2023/05/11 22:52:16;;;;;;;1.20;0.90;;;;;;;17.99;57.48;96364.19;10414827;28;20520;-26
2023/05/11 22:57:17;;;;;;;1.63;0.80;;;;;;;17.97;57.29;96356.59;10406934;28;20030;-26
2023/05/11 23:02:17;;;;;;;1.43;0.50;;;;;;;17.96;57.30;96354.91;10414633;28;20280;-26
2023/05/11 23:07:18;;;;;;;0.60;0.47;;;;;;;17.96;57.30;96359.13;10413719;28;20038;-26
2023/05/11 23:12:18;;;;;;;1.38;1.00;;;;;;;18.08;60.09;96359.09;10398729;28;20033;-26
2023/05/11 23:17:19;;;;;;;2.37;1.20;;;;;;;18.18;63.51;96355.66;10411393;28;20490;-27
2023/05/11 23:22:19;;;;;;;1.87;1.03;;;;;;;18.19;61.33;96357.34;10405776;28;20338;-26